SPK126 KLAX-PGUM
Flight info
| Callsign | SPK126 |
|---|---|
| Flight time | N/A |
| Altitude | 30000 |
| Route | SUMMR2 RIZIN KL30E ALANN 36N30 37N40 37N50 36N60 34N69 32N77 30E77 28E72 25E66 24E64 22E60 20E56 18E53 16E50 STINE A450 BAGBE FIGOR FOLAP |
| Aircraft | B77W/H-L/S |
Departure
| Time | N/A |
|---|---|
| Airport | Los Angeles International Airport (KLAX) |
Arrival
| Time | 2026-04-26 13:58 |
|---|---|
| Airport | Antonio B. Won Pat International Airport (PGUM) |
| Time | Latitude | Longitude | Altitude | Speed | Heading |
|---|---|---|---|---|---|
| 2026-04-26 13:37 | 13.71743 | 145.47496 | 23754 ft | 434 kts | 251° |
| 2026-04-26 13:37 | 13.70717 | 145.44589 | 23247 ft | 431 kts | 251° |
| 2026-04-26 13:37 | 13.69697 | 145.41703 | 22751 ft | 428 kts | 251° |
| 2026-04-26 13:37 | 13.68684 | 145.38836 | 22255 ft | 425 kts | 251° |
| 2026-04-26 13:38 | 13.67678 | 145.35990 | 21771 ft | 422 kts | 251° |
| 2026-04-26 13:38 | 13.66678 | 145.33164 | 21283 ft | 419 kts | 250° |
| 2026-04-26 13:38 | 13.65534 | 145.30428 | 20801 ft | 415 kts | 244° |
| 2026-04-26 13:38 | 13.64156 | 145.27833 | 20321 ft | 413 kts | 240° |
| 2026-04-26 13:39 | 13.62665 | 145.25320 | 19823 ft | 410 kts | 238° |
| 2026-04-26 13:39 | 13.61116 | 145.22865 | 19336 ft | 408 kts | 237° |
| 2026-04-26 13:39 | 13.59544 | 145.20446 | 18851 ft | 406 kts | 237° |
| 2026-04-26 13:39 | 13.57973 | 145.18045 | 18369 ft | 403 kts | 237° |
| 2026-04-26 13:40 | 13.56418 | 145.15659 | 17886 ft | 400 kts | 237° |
| 2026-04-26 13:40 | 13.54878 | 145.13285 | 17403 ft | 398 kts | 237° |
| 2026-04-26 13:40 | 13.53345 | 145.10923 | 16918 ft | 396 kts | 237° |
| 2026-04-26 13:40 | 13.51847 | 145.08609 | 16447 ft | 393 kts | 237° |
| 2026-04-26 13:41 | 13.50337 | 145.06277 | 15965 ft | 390 kts | 236° |
| 2026-04-26 13:41 | 13.48839 | 145.03963 | 15487 ft | 388 kts | 236° |
| 2026-04-26 13:41 | 13.47360 | 145.01660 | 15011 ft | 385 kts | 236° |
| 2026-04-26 13:41 | 13.45892 | 144.99376 | 14582 ft | 381 kts | 236° |
| 2026-04-26 13:42 | 13.44436 | 144.97120 | 14152 ft | 377 kts | 236° |
| 2026-04-26 13:42 | 13.42990 | 144.94884 | 13686 ft | 375 kts | 236° |
| 2026-04-26 13:42 | 13.41551 | 144.92663 | 13224 ft | 372 kts | 236° |
| 2026-04-26 13:42 | 13.40123 | 144.90459 | 12736 ft | 370 kts | 235° |
| 2026-04-26 13:43 | 13.38699 | 144.88262 | 12256 ft | 368 kts | 235° |
| 2026-04-26 13:43 | 13.37283 | 144.86079 | 11780 ft | 366 kts | 235° |
| 2026-04-26 13:43 | 13.35876 | 144.83910 | 11317 ft | 364 kts | 235° |
| 2026-04-26 13:43 | 13.34472 | 144.81746 | 10751 ft | 365 kts | 235° |
| 2026-04-26 13:44 | 13.33088 | 144.79583 | 10416 ft | 358 kts | 237° |
| 2026-04-26 13:44 | 13.31899 | 144.77391 | 10359 ft | 344 kts | 241° |
| 2026-04-26 13:44 | 13.30755 | 144.75293 | 10287 ft | 330 kts | 236° |
| 2026-04-26 13:44 | 13.29482 | 144.73383 | 10196 ft | 319 kts | 233° |
| 2026-04-26 13:45 | 13.28202 | 144.71570 | 10117 ft | 308 kts | 232° |
| 2026-04-26 13:45 | 13.26973 | 144.69814 | 10044 ft | 298 kts | 233° |
| 2026-04-26 13:45 | 13.25789 | 144.68116 | 9981 ft | 287 kts | 233° |
| 2026-04-26 13:45 | 13.24639 | 144.66464 | 9794 ft | 282 kts | 232° |
| 2026-04-26 13:46 | 13.23508 | 144.64840 | 9601 ft | 278 kts | 232° |
| 2026-04-26 13:46 | 13.22385 | 144.63223 | 9435 ft | 280 kts | 233° |
| 2026-04-26 13:46 | 13.21245 | 144.61582 | 9269 ft | 286 kts | 232° |
| 2026-04-26 13:46 | 13.20065 | 144.59884 | 9134 ft | 296 kts | 232° |
| 2026-04-26 13:47 | 13.18868 | 144.58160 | 9008 ft | 296 kts | 233° |
| 2026-04-26 13:47 | 13.17694 | 144.56466 | 8934 ft | 286 kts | 232° |
| 2026-04-26 13:47 | 13.16564 | 144.54832 | 8900 ft | 275 kts | 232° |
| 2026-04-26 13:47 | 13.15477 | 144.53255 | 8884 ft | 268 kts | 233° |
| 2026-04-26 13:48 | 13.14525 | 144.51591 | 8500 ft | 275 kts | 247° |
| 2026-04-26 13:48 | 13.14229 | 144.49636 | 7989 ft | 284 kts | 274° |
| 2026-04-26 13:48 | 13.14818 | 144.47704 | 7588 ft | 286 kts | 301° |
| 2026-04-26 13:48 | 13.16159 | 144.46233 | 7264 ft | 282 kts | 328° |
| 2026-04-26 13:49 | 13.17944 | 144.45479 | 6982 ft | 276 kts | 349° |
| 2026-04-26 13:49 | 13.19837 | 144.45284 | 6676 ft | 272 kts | 1° |
| 2026-04-26 13:49 | 13.21730 | 144.45216 | 6399 ft | 272 kts | 1° |
| 2026-04-26 13:49 | 13.23590 | 144.45149 | 6183 ft | 270 kts | 1° |
| 2026-04-26 13:50 | 13.25463 | 144.45085 | 5936 ft | 269 kts | 1° |
| 2026-04-26 13:50 | 13.27331 | 144.45027 | 5707 ft | 267 kts | 3° |
| 2026-04-26 13:50 | 13.29144 | 144.45244 | 5421 ft | 259 kts | 19° |
| 2026-04-26 13:50 | 13.30707 | 144.46090 | 5118 ft | 252 kts | 41° |
| 2026-04-26 13:51 | 13.31851 | 144.47421 | 4937 ft | 247 kts | 57° |
| 2026-04-26 13:51 | 13.32756 | 144.48907 | 4931 ft | 245 kts | 60° |
| 2026-04-26 13:51 | 13.33604 | 144.50420 | 4932 ft | 244 kts | 62° |
| 2026-04-26 13:51 | 13.34451 | 144.51947 | 4933 ft | 247 kts | 62° |
| 2026-04-26 13:52 | 13.35321 | 144.53471 | 4968 ft | 248 kts | 60° |
| 2026-04-26 13:52 | 13.36236 | 144.54988 | 4818 ft | 253 kts | 59° |
| 2026-04-26 13:52 | 13.37178 | 144.56507 | 4505 ft | 246 kts | 59° |
| 2026-04-26 13:52 | 13.38088 | 144.57969 | 4243 ft | 243 kts | 59° |
| 2026-04-26 13:53 | 13.38963 | 144.59455 | 3982 ft | 242 kts | 62° |
| 2026-04-26 13:53 | 13.39723 | 144.60982 | 3821 ft | 234 kts | 65° |
| 2026-04-26 13:53 | 13.40381 | 144.62430 | 3747 ft | 215 kts | 66° |
| 2026-04-26 13:53 | 13.40991 | 144.63780 | 3398 ft | 201 kts | 66° |
| 2026-04-26 13:54 | 13.41557 | 144.65021 | 3123 ft | 184 kts | 65° |
| 2026-04-26 13:54 | 13.42086 | 144.66178 | 2941 ft | 175 kts | 65° |
| 2026-04-26 13:54 | 13.42585 | 144.67269 | 2681 ft | 163 kts | 65° |
| 2026-04-26 13:55 | 13.43486 | 144.69238 | 2273 ft | 147 kts | 65° |
| 2026-04-26 13:55 | 13.43774 | 144.69866 | 2129 ft | 148 kts | 65° |
| 2026-04-26 13:55 | 13.44830 | 144.72173 | 1644 ft | 154 kts | 64° |
| 2026-04-26 13:56 | 13.45283 | 144.73161 | 1434 ft | 152 kts | 64° |
| 2026-04-26 13:56 | 13.45728 | 144.74133 | 1232 ft | 150 kts | 64° |
| 2026-04-26 13:56 | 13.46160 | 144.75078 | 1037 ft | 149 kts | 64° |
| 2026-04-26 13:56 | 13.46601 | 144.76040 | 838 ft | 149 kts | 64° |
| 2026-04-26 13:57 | 13.47041 | 144.77001 | 638 ft | 148 kts | 64° |
| 2026-04-26 13:57 | 13.47479 | 144.77958 | 444 ft | 148 kts | 65° |
| 2026-04-26 13:57 | 13.47913 | 144.78905 | 316 ft | 139 kts | 65° |
| 2026-04-26 13:57 | 13.48271 | 144.79689 | 312 ft | 100 kts | 65° |
| 2026-04-26 13:58 | 13.48502 | 144.80192 | 312 ft | 56 kts | 65° |
| 2026-04-26 13:58 | 13.48607 | 144.80422 | 312 ft | 13 kts | 65° |
| 2026-04-26 13:58 | 13.48627 | 144.80466 | 312 ft | 6 kts | 64° |
| 2026-04-26 13:58 | 13.48660 | 144.80486 | 312 ft | 6 kts | 348° |
| 2026-04-26 13:59 | 13.48700 | 144.80475 | 312 ft | 6 kts | 338° |
| 2026-04-26 13:59 | 13.48749 | 144.80452 | 312 ft | 11 kts | 335° |
| 2026-04-26 13:59 | 13.48816 | 144.80420 | 312 ft | 10 kts | 336° |
| 2026-04-26 14:00 | 13.48992 | 144.80418 | 312 ft | 9 kts | 44° |
| 2026-04-26 14:00 | 13.49030 | 144.80464 | 312 ft | 8 kts | 57° |
| 2026-04-26 14:00 | 13.49048 | 144.80498 | 312 ft | 8 kts | 66° |
| 2026-04-26 14:01 | 13.49079 | 144.80564 | 312 ft | 7 kts | 62° |
| 2026-04-26 14:01 | 13.49102 | 144.80608 | 312 ft | 7 kts | 62° |
| 2026-04-26 14:01 | 13.49124 | 144.80649 | 312 ft | 6 kts | 62° |
| 2026-04-26 14:01 | 13.49144 | 144.80688 | 312 ft | 6 kts | 60° |
| 2026-04-26 14:02 | 13.49163 | 144.80723 | 312 ft | 6 kts | 61° |
| 2026-04-26 14:02 | 13.49182 | 144.80757 | 312 ft | 6 kts | 61° |
| 2026-04-26 14:02 | 13.49202 | 144.80788 | 312 ft | 5 kts | 37° |
| 2026-04-26 14:02 | 13.49236 | 144.80786 | 312 ft | 5 kts | 336° |
| 2026-04-26 14:03 | 13.49266 | 144.80771 | 312 ft | 5 kts | 332° |
| 2026-04-26 14:03 | 13.49278 | 144.80765 | 312 ft | 0 kts | 330° |